createdAt,value
2024-03-27T00:00:47.351Z,0.00
2024-03-27T00:01:47.308Z,0.00
2024-03-27T00:02:47.320Z,0.00
2024-03-27T00:03:47.381Z,0.00
2024-03-27T00:04:47.360Z,0.00
2024-03-27T00:05:47.318Z,0.00
2024-03-27T00:06:47.277Z,0.00
2024-03-27T00:07:47.236Z,0.00
2024-03-27T00:08:47.252Z,0.00
2024-03-27T00:09:47.211Z,0.00
2024-03-27T00:10:47.421Z,0.00
2024-03-27T00:11:47.234Z,0.00
2024-03-27T00:12:47.257Z,0.00
2024-03-27T00:13:47.179Z,0.00
2024-03-27T00:14:47.152Z,0.00
2024-03-27T00:15:47.140Z,0.00
2024-03-27T00:16:47.133Z,0.00
2024-03-27T00:17:47.200Z,0.00
2024-03-27T00:18:47.176Z,0.00
2024-03-27T00:19:47.108Z,0.00
2024-03-27T00:20:47.087Z,0.00
2024-03-27T00:21:47.072Z,0.00
2024-03-27T00:22:47.184Z,0.00
2024-03-27T00:23:47.185Z,0.00
2024-03-27T00:24:47.186Z,0.00
2024-03-27T00:25:48.051Z,0.00
2024-03-27T00:26:47.025Z,0.00
2024-03-27T00:27:47.047Z,0.00
2024-03-27T00:28:47.014Z,0.00
2024-03-27T00:29:47.435Z,0.00
2024-03-27T00:30:48.404Z,0.00
2024-03-27T00:31:47.042Z,0.00
2024-03-27T00:32:46.968Z,0.00
2024-03-27T00:33:47.000Z,0.00
2024-03-27T00:34:46.949Z,0.00
2024-03-27T00:35:46.910Z,0.00
2024-03-27T00:36:46.889Z,0.00
2024-03-27T00:37:46.884Z,0.00
2024-03-27T00:38:46.896Z,0.00
2024-03-27T00:39:46.923Z,0.00
2024-03-27T00:40:46.844Z,0.00
2024-03-27T00:41:46.844Z,0.00
2024-03-27T00:42:46.827Z,0.00
2024-03-27T00:43:46.866Z,0.00
2024-03-27T00:44:46.854Z,0.00
2024-03-27T00:45:46.827Z,0.00
2024-03-27T00:46:46.783Z,0.00
2024-03-27T00:47:46.767Z,0.00
2024-03-27T00:48:46.768Z,0.00
2024-03-27T00:49:46.768Z,0.00
2024-03-27T00:50:46.725Z,0.00
2024-03-27T00:51:46.718Z,0.00
2024-03-27T00:52:46.762Z,0.00
2024-03-27T00:53:46.698Z,0.00
2024-03-27T00:54:46.703Z,0.00
2024-03-27T00:55:46.682Z,0.00
2024-03-27T00:56:46.674Z,0.00
2024-03-27T00:57:46.648Z,0.00
2024-03-27T00:58:46.652Z,0.00
2024-03-27T00:59:46.659Z,0.00
2024-03-27T01:00:46.643Z,0.00
2024-03-27T01:01:46.619Z,0.00
2024-03-27T01:02:46.588Z,0.00
2024-03-27T01:03:46.591Z,0.00
2024-03-27T01:04:46.571Z,0.00
2024-03-27T01:05:46.564Z,0.00
2024-03-27T01:06:46.582Z,0.00
2024-03-27T01:07:46.541Z,0.00
2024-03-27T01:08:46.524Z,0.00
2024-03-27T01:09:46.514Z,0.00
2024-03-27T01:10:46.704Z,0.00
2024-03-27T01:11:46.601Z,0.00
2024-03-27T01:12:46.489Z,0.00
2024-03-27T01:13:46.476Z,0.00
2024-03-27T01:14:46.463Z,0.00
2024-03-27T01:15:46.498Z,0.00
2024-03-27T01:16:46.435Z,0.00
2024-03-27T01:17:46.457Z,0.00
2024-03-27T01:18:46.400Z,0.00
2024-03-27T01:19:46.414Z,0.00
2024-03-27T01:20:46.421Z,0.00
2024-03-27T01:21:46.363Z,0.00
2024-03-27T01:22:46.379Z,0.00
2024-03-27T01:23:46.519Z,0.00
2024-03-27T01:24:46.388Z,0.00
2024-03-27T01:25:46.374Z,0.00
2024-03-27T01:26:46.364Z,0.00
2024-03-27T01:27:46.310Z,0.00
2024-03-27T01:28:46.301Z,0.00
2024-03-27T01:29:46.288Z,0.00
2024-03-27T01:30:46.308Z,0.00
2024-03-27T01:31:46.474Z,0.00
2024-03-27T01:32:46.249Z,0.00
2024-03-27T01:33:46.290Z,0.00
2024-03-27T01:34:46.207Z,0.00
2024-03-27T01:35:46.217Z,0.00
2024-03-27T01:36:46.272Z,0.00
2024-03-27T01:37:46.200Z,0.00
2024-03-27T01:38:46.194Z,0.00
2024-03-27T01:39:46.169Z,0.00
2024-03-27T01:40:46.161Z,0.00
2024-03-27T01:41:46.153Z,0.00
2024-03-27T01:42:46.126Z,0.00
2024-03-27T01:43:46.130Z,0.00
2024-03-27T01:44:46.165Z,0.00
2024-03-27T01:45:46.084Z,0.00
2024-03-27T01:46:46.278Z,0.00
2024-03-27T01:47:46.211Z,0.00
2024-03-27T01:48:46.047Z,0.00
2024-03-27T01:49:46.044Z,0.00
2024-03-27T01:50:46.070Z,0.00
2024-03-27T01:51:46.467Z,0.00
2024-03-27T01:52:46.052Z,0.00
2024-03-27T01:53:46.067Z,0.00
2024-03-27T01:54:46.019Z,0.00
2024-03-27T01:55:45.967Z,0.00
2024-03-27T01:56:45.963Z,0.00
2024-03-27T01:57:45.960Z,0.00
2024-03-27T01:58:45.976Z,0.00
2024-03-27T01:59:45.933Z,0.00
2024-03-27T02:00:45.967Z,0.00
2024-03-27T02:01:45.997Z,0.00
2024-03-27T02:02:45.894Z,0.00
2024-03-27T02:03:45.893Z,0.00
2024-03-27T02:04:45.873Z,0.00
2024-03-27T02:05:45.862Z,0.00
2024-03-27T02:06:45.884Z,0.00
2024-03-27T02:07:45.850Z,0.00
2024-03-27T02:08:45.839Z,0.00
2024-03-27T02:09:45.808Z,0.00
2024-03-27T02:10:45.804Z,0.00
2024-03-27T02:11:45.786Z,0.00
2024-03-27T02:12:45.869Z,0.00
2024-03-27T02:13:45.768Z,0.00
2024-03-27T02:14:45.754Z,0.00
2024-03-27T02:15:45.736Z,0.00
2024-03-27T02:16:45.775Z,0.00
2024-03-27T02:17:45.745Z,0.00
2024-03-27T02:18:45.715Z,0.00
2024-03-27T02:19:45.700Z,0.00
2024-03-27T02:20:45.681Z,0.00
2024-03-27T02:21:45.677Z,0.00
2024-03-27T02:22:45.733Z,0.00
2024-03-27T02:23:45.651Z,0.00
2024-03-27T02:24:45.662Z,0.00
2024-03-27T02:25:45.638Z,0.00
2024-03-27T02:26:45.619Z,0.00
2024-03-27T02:27:45.602Z,0.00
2024-03-27T02:28:45.645Z,0.00
2024-03-27T02:29:45.578Z,0.00
2024-03-27T02:30:45.575Z,0.00
2024-03-27T02:31:45.548Z,0.00
2024-03-27T02:32:45.732Z,0.00
2024-03-27T02:33:45.691Z,0.00
2024-03-27T02:34:45.573Z,0.00
2024-03-27T02:35:45.515Z,0.00
2024-03-27T02:36:45.526Z,0.00
2024-03-27T02:37:45.479Z,0.00
2024-03-27T02:38:45.492Z,0.00
2024-03-27T02:39:45.472Z,0.00
2024-03-27T02:40:45.533Z,0.00
2024-03-27T02:41:45.442Z,0.00
2024-03-27T02:42:45.426Z,0.00
2024-03-27T02:43:45.412Z,0.00
2024-03-27T02:44:45.392Z,0.00
2024-03-27T02:45:45.380Z,0.00
2024-03-27T02:46:45.403Z,0.00
2024-03-27T02:47:45.363Z,0.00
2024-03-27T02:48:45.382Z,0.00
2024-03-27T02:49:45.333Z,0.00
2024-03-27T02:50:45.342Z,0.00
2024-03-27T02:51:45.332Z,0.00
2024-03-27T02:52:45.658Z,0.00
2024-03-27T02:53:45.692Z,0.00
2024-03-27T02:54:45.300Z,0.00
2024-03-27T02:55:45.281Z,0.00
2024-03-27T02:56:45.303Z,0.00
2024-03-27T02:57:45.314Z,0.00
2024-03-27T02:58:45.254Z,0.00
2024-03-27T02:59:45.240Z,0.00
2024-03-27T03:00:45.224Z,0.00
2024-03-27T03:01:45.227Z,0.00
2024-03-27T03:02:45.202Z,0.00
2024-03-27T03:03:45.238Z,0.00
2024-03-27T03:04:45.210Z,0.00
2024-03-27T03:05:45.158Z,0.00
2024-03-27T03:06:45.167Z,0.00
2024-03-27T03:07:45.174Z,0.00
2024-03-27T03:08:45.127Z,0.00
2024-03-27T03:09:45.114Z,0.00
2024-03-27T03:10:45.137Z,0.00
2024-03-27T03:11:45.129Z,0.00
2024-03-27T03:12:45.078Z,0.00
2024-03-27T03:13:45.143Z,0.00
2024-03-27T03:14:45.110Z,0.00
2024-03-27T03:15:45.086Z,0.00
2024-03-27T03:16:45.043Z,0.00
2024-03-27T03:17:45.050Z,0.00
2024-03-27T03:18:45.019Z,0.00
2024-03-27T03:19:45.022Z,0.00
2024-03-27T03:20:45.074Z,0.00
2024-03-27T03:21:44.995Z,0.00
2024-03-27T03:22:45.002Z,0.00
2024-03-27T03:23:44.982Z,0.00
2024-03-27T03:24:44.948Z,0.00
2024-03-27T03:25:44.915Z,0.00
2024-03-27T03:26:44.923Z,0.00
2024-03-27T03:27:44.949Z,0.00
2024-03-27T03:28:44.925Z,0.00
2024-03-27T03:29:44.919Z,0.00
2024-03-27T03:30:44.918Z,0.00
2024-03-27T03:31:44.866Z,0.00
2024-03-27T03:32:44.855Z,0.00
2024-03-27T03:33:45.047Z,0.00
2024-03-27T03:34:44.891Z,0.00
2024-03-27T03:35:44.827Z,0.00
2024-03-27T03:36:44.811Z,0.00
2024-03-27T03:37:45.270Z,0.00
2024-03-27T03:38:45.215Z,0.00
2024-03-27T03:39:44.780Z,0.00
2024-03-27T03:40:44.763Z,0.00
2024-03-27T03:41:44.774Z,0.00
2024-03-27T03:42:44.757Z,0.00
2024-03-27T03:43:44.736Z,0.00
2024-03-27T03:44:44.717Z,0.00
2024-03-27T03:45:44.726Z,0.00
2024-03-27T03:46:44.721Z,0.00
2024-03-27T03:47:44.702Z,0.00
2024-03-27T03:48:44.733Z,0.00
2024-03-27T03:49:44.681Z,0.00
2024-03-27T03:50:44.667Z,0.00
2024-03-27T03:51:44.685Z,0.00
2024-03-27T03:52:44.640Z,0.00
2024-03-27T03:53:44.969Z,0.00
2024-03-27T03:54:44.906Z,0.00
2024-03-27T03:55:44.677Z,0.00
2024-03-27T03:56:44.620Z,0.00
2024-03-27T03:57:44.576Z,0.00
2024-03-27T03:58:44.584Z,0.00
2024-03-27T03:59:44.550Z,0.00
2024-03-27T04:00:44.548Z,0.00
2024-03-27T04:01:44.540Z,0.00
2024-03-27T04:02:44.556Z,0.00
2024-03-27T04:03:44.524Z,0.00
2024-03-27T04:04:44.513Z,0.00
2024-03-27T04:05:44.523Z,0.00
2024-03-27T04:06:44.499Z,0.00
2024-03-27T04:07:44.477Z,0.00
2024-03-27T04:08:44.711Z,0.00
2024-03-27T04:09:44.456Z,0.00
2024-03-27T04:10:44.495Z,0.00
2024-03-27T04:11:44.420Z,0.00
2024-03-27T04:12:44.413Z,0.00
2024-03-27T04:13:44.403Z,0.00
2024-03-27T04:14:44.911Z,0.00
2024-03-27T04:15:44.683Z,0.00
2024-03-27T04:16:44.378Z,0.00
2024-03-27T04:17:44.376Z,0.00
2024-03-27T04:18:44.375Z,0.00
2024-03-27T04:19:44.365Z,0.00
2024-03-27T04:20:44.330Z,0.00
2024-03-27T04:21:44.347Z,0.00
2024-03-27T04:22:44.301Z,0.00
2024-03-27T04:23:45.146Z,0.00
2024-03-27T04:24:44.424Z,0.00
2024-03-27T04:25:54.536Z,0.00
2024-03-27T04:26:45.276Z,0.00
2024-03-27T04:27:44.266Z,0.00
2024-03-27T04:28:44.240Z,0.00
2024-03-27T04:29:44.217Z,0.00
2024-03-27T04:30:44.209Z,0.00
2024-03-27T04:31:44.248Z,0.00
2024-03-27T04:32:44.216Z,0.00
2024-03-27T04:33:44.188Z,0.00
2024-03-27T04:34:44.175Z,0.00
2024-03-27T04:35:44.325Z,0.00
2024-03-27T04:36:44.348Z,0.00
2024-03-27T04:37:44.358Z,0.00
2024-03-27T04:38:44.162Z,0.00
2024-03-27T04:39:44.156Z,0.00
2024-03-27T04:40:44.150Z,0.00
2024-03-27T04:41:44.098Z,0.00
2024-03-27T04:42:44.083Z,0.00
2024-03-27T04:43:44.218Z,0.00
2024-03-27T04:44:44.088Z,0.00
2024-03-27T04:45:44.037Z,0.00
2024-03-27T04:46:44.006Z,0.00
2024-03-27T04:47:44.003Z,0.00
2024-03-27T04:48:44.003Z,0.00
2024-03-27T04:49:44.012Z,0.00
2024-03-27T04:50:44.115Z,0.00
2024-03-27T04:51:43.966Z,4.00
2024-03-27T04:52:43.977Z,4.00
2024-03-27T04:53:44.030Z,4.00
2024-03-27T04:54:44.313Z,4.00
2024-03-27T04:55:44.733Z,4.00
2024-03-27T04:56:44.088Z,4.00
2024-03-27T04:57:43.946Z,4.00
2024-03-27T04:58:43.927Z,8.00
2024-03-27T04:59:43.918Z,8.00
2024-03-27T05:00:43.939Z,8.00
2024-03-27T05:01:43.890Z,12.00
2024-03-27T05:02:43.895Z,12.00
2024-03-27T05:03:43.861Z,16.00
2024-03-27T05:04:43.824Z,16.00
2024-03-27T05:05:43.941Z,20.00
2024-03-27T05:06:43.830Z,24.00
2024-03-27T05:07:43.818Z,24.00
2024-03-27T05:08:43.964Z,28.00
2024-03-27T05:09:43.968Z,28.00
2024-03-27T05:10:43.838Z,32.00
2024-03-27T05:11:43.732Z,36.00
2024-03-27T05:12:43.743Z,44.00
2024-03-27T05:13:43.749Z,44.00
2024-03-27T05:14:43.722Z,52.00
2024-03-27T05:15:44.034Z,56.00
2024-03-27T05:16:43.735Z,60.00
2024-03-27T05:17:43.684Z,64.00
2024-03-27T05:18:43.693Z,72.00
2024-03-27T05:19:43.650Z,76.00
2024-03-27T05:20:43.677Z,80.00
2024-03-27T05:21:43.644Z,88.00
2024-03-27T05:22:43.629Z,88.00
2024-03-27T05:23:43.641Z,92.00
2024-03-27T05:24:43.651Z,104.00
2024-03-27T05:25:43.610Z,112.00
2024-03-27T05:26:43.573Z,124.00
2024-03-27T05:27:43.557Z,132.00
2024-03-27T05:28:43.564Z,144.00
2024-03-27T05:29:43.573Z,160.00
2024-03-27T05:30:43.535Z,180.00
2024-03-27T05:31:43.508Z,196.00
2024-03-27T05:32:43.511Z,216.00
2024-03-27T05:33:43.568Z,244.00
2024-03-27T05:34:43.478Z,268.00
2024-03-27T05:35:43.485Z,292.00
2024-03-27T05:36:43.539Z,324.00
2024-03-27T05:37:43.875Z,356.00
2024-03-27T05:38:43.476Z,392.00
2024-03-27T05:39:43.470Z,428.00
2024-03-27T05:40:43.424Z,472.00
2024-03-27T05:41:43.443Z,508.00
2024-03-27T05:42:43.389Z,540.00
2024-03-27T05:43:43.391Z,564.00
2024-03-27T05:44:43.412Z,592.00
2024-03-27T05:45:43.360Z,620.00
2024-03-27T05:46:43.361Z,648.00
2024-03-27T05:47:43.716Z,684.00
2024-03-27T05:48:43.340Z,700.00
2024-03-27T05:49:43.339Z,704.00
2024-03-27T05:50:43.330Z,704.00
2024-03-27T05:51:43.340Z,700.00
2024-03-27T05:52:43.274Z,684.00
2024-03-27T05:53:43.279Z,680.00
2024-03-27T05:54:43.315Z,692.00
2024-03-27T05:55:43.241Z,704.00
2024-03-27T05:56:43.395Z,716.00
2024-03-27T05:57:43.283Z,708.00
2024-03-27T05:58:43.256Z,680.00
2024-03-27T05:59:43.210Z,648.00
2024-03-27T06:00:43.224Z,632.00
2024-03-27T06:01:43.172Z,632.00
2024-03-27T06:02:43.172Z,644.00
2024-03-27T06:03:43.186Z,676.00
2024-03-27T06:04:43.146Z,712.00
2024-03-27T06:05:43.187Z,748.00
2024-03-27T06:06:43.137Z,772.00
2024-03-27T06:07:43.169Z,776.00
2024-03-27T06:08:43.107Z,776.00
2024-03-27T06:09:43.099Z,792.00
2024-03-27T06:10:43.105Z,832.00
2024-03-27T06:11:43.099Z,868.00
2024-03-27T06:12:43.046Z,896.00
2024-03-27T06:13:43.047Z,944.00
2024-03-27T06:14:44.877Z,996.00
2024-03-27T06:15:43.054Z,1068.00
2024-03-27T06:16:43.037Z,1096.00
2024-03-27T06:17:43.215Z,1084.00
2024-03-27T06:18:43.428Z,1068.00
2024-03-27T06:19:43.006Z,1040.00
2024-03-27T06:20:42.959Z,1052.00
2024-03-27T06:21:42.954Z,1076.00
2024-03-27T06:22:42.962Z,1132.00
2024-03-27T06:23:42.955Z,1184.00
2024-03-27T06:24:42.976Z,1200.00
2024-03-27T06:25:42.997Z,1200.00
2024-03-27T06:26:42.931Z,1160.00
2024-03-27T06:27:42.927Z,1140.00
2024-03-27T06:28:42.884Z,1116.00
2024-03-27T06:29:42.863Z,1124.00
2024-03-27T06:30:42.857Z,1168.00
2024-03-27T06:31:42.916Z,1224.00
2024-03-27T06:32:42.840Z,1264.00
2024-03-27T06:33:42.897Z,1288.00
2024-03-27T06:34:42.804Z,1328.00
2024-03-27T06:35:42.829Z,1400.00
2024-03-27T06:36:42.786Z,1496.00
2024-03-27T06:37:43.245Z,1576.00
2024-03-27T06:38:43.058Z,1632.00
2024-03-27T06:39:42.767Z,1640.00
2024-03-27T06:40:42.812Z,1636.00
2024-03-27T06:41:42.727Z,1628.00
2024-03-27T06:42:42.778Z,1656.00
2024-03-27T06:43:42.720Z,1664.00
2024-03-27T06:44:44.103Z,1664.00
2024-03-27T06:45:50.014Z,1700.00
2024-03-27T06:46:43.684Z,1720.00
2024-03-27T06:47:42.665Z,1732.00
2024-03-27T06:48:42.706Z,1744.00
2024-03-27T06:49:42.658Z,1784.00
2024-03-27T06:50:42.624Z,1768.00
2024-03-27T06:51:42.635Z,1716.00
2024-03-27T06:52:42.602Z,1676.00
2024-03-27T06:53:42.605Z,1644.00
2024-03-27T06:54:42.619Z,1672.00
2024-03-27T06:55:42.595Z,1748.00
2024-03-27T06:56:42.675Z,1808.00
2024-03-27T06:57:42.596Z,1844.00
2024-03-27T06:58:42.684Z,1900.00
2024-03-27T06:59:42.792Z,1976.00
2024-03-27T07:00:42.564Z,2040.00
2024-03-27T07:01:42.513Z,2060.00
2024-03-27T07:02:42.509Z,2076.00
2024-03-27T07:03:42.511Z,2128.00
2024-03-27T07:04:42.473Z,2212.00
2024-03-27T07:05:42.489Z,2340.00
2024-03-27T07:06:42.474Z,2380.00
2024-03-27T07:07:42.456Z,2360.00
2024-03-27T07:08:42.426Z,2336.00
2024-03-27T07:09:42.457Z,2304.00
2024-03-27T07:10:42.439Z,2252.00
2024-03-27T07:11:42.404Z,2220.00
2024-03-27T07:12:42.388Z,2228.00
2024-03-27T07:13:42.369Z,2200.00
2024-03-27T07:14:42.368Z,2108.00
2024-03-27T07:15:42.357Z,2000.00
2024-03-27T07:16:42.357Z,1960.00
2024-03-27T07:17:42.325Z,2000.00
2024-03-27T07:18:42.320Z,2056.00
2024-03-27T07:19:42.446Z,2044.00
2024-03-27T07:20:42.265Z,1960.00
2024-03-27T07:21:42.302Z,1992.00
2024-03-27T07:22:42.279Z,2128.00
2024-03-27T07:23:42.261Z,2212.00
2024-03-27T07:24:42.249Z,2244.00
2024-03-27T07:25:42.229Z,2268.00
2024-03-27T07:26:42.214Z,2232.00
2024-03-27T07:27:42.225Z,2284.00
2024-03-27T07:28:42.207Z,2356.00
2024-03-27T07:29:42.172Z,2388.00
2024-03-27T07:30:44.245Z,2396.00
2024-03-27T07:31:42.161Z,2344.00
2024-03-27T07:32:42.140Z,2356.00
2024-03-27T07:33:42.191Z,2456.00
2024-03-27T07:34:42.145Z,2480.00
2024-03-27T07:35:42.126Z,2480.00
2024-03-27T07:36:42.124Z,2524.00
2024-03-27T07:37:42.140Z,2584.00
2024-03-27T07:38:42.904Z,2676.00
2024-03-27T07:39:42.075Z,2628.00
2024-03-27T07:40:42.078Z,2616.00
2024-03-27T07:41:42.101Z,2712.00
2024-03-27T07:42:42.079Z,2912.00
2024-03-27T07:43:42.006Z,3144.00
2024-03-27T07:44:42.015Z,3276.00
2024-03-27T07:45:42.052Z,3392.00
2024-03-27T07:46:42.188Z,3448.00
2024-03-27T07:47:41.998Z,3532.00
2024-03-27T07:48:41.958Z,3628.00
2024-03-27T07:49:41.942Z,3720.00
2024-03-27T07:50:42.369Z,3796.00
2024-03-27T07:51:41.943Z,3872.00
2024-03-27T07:52:41.904Z,3860.00
2024-03-27T07:53:42.002Z,3860.00
2024-03-27T07:54:41.940Z,3888.00
2024-03-27T07:55:41.876Z,3848.00
2024-03-27T07:56:41.879Z,3900.00
2024-03-27T07:57:41.873Z,4100.00
2024-03-27T07:58:42.125Z,4180.00
2024-03-27T07:59:41.854Z,4052.00
2024-03-27T08:00:42.027Z,3872.00
2024-03-27T08:01:41.814Z,3776.00
2024-03-27T08:02:41.801Z,3832.00
2024-03-27T08:03:41.919Z,3888.00
2024-03-27T08:04:41.786Z,3712.00
2024-03-27T08:05:41.795Z,3480.00
2024-03-27T08:06:41.809Z,3428.00
2024-03-27T08:07:41.753Z,3568.00
2024-03-27T08:08:41.757Z,3816.00
2024-03-27T08:09:41.719Z,3928.00
2024-03-27T08:10:41.817Z,4004.00
2024-03-27T08:11:41.692Z,4240.00
2024-03-27T08:12:41.714Z,4456.00
2024-03-27T08:13:42.075Z,4644.00
2024-03-27T08:14:41.662Z,4724.00
2024-03-27T08:15:43.025Z,4668.00
2024-03-27T08:16:41.647Z,4500.00
2024-03-27T08:17:41.655Z,4340.00
2024-03-27T08:18:41.645Z,4268.00
2024-03-27T08:19:41.740Z,4260.00
2024-03-27T08:20:41.732Z,4228.00
2024-03-27T08:21:41.596Z,4220.00
2024-03-27T08:22:41.572Z,4320.00
2024-03-27T08:23:41.586Z,4460.00
2024-03-27T08:24:41.544Z,4756.00
2024-03-27T08:25:41.553Z,4716.00
2024-03-27T08:26:41.537Z,4484.00
2024-03-27T08:27:41.503Z,4460.00
2024-03-27T08:28:41.512Z,4600.00
2024-03-27T08:29:41.482Z,4644.00
2024-03-27T08:30:41.498Z,4748.00
2024-03-27T08:31:41.466Z,4996.00
2024-03-27T08:32:41.463Z,4952.00
2024-03-27T08:33:41.452Z,4992.00
2024-03-27T08:34:41.434Z,5160.00
2024-03-27T08:35:41.423Z,5200.00
2024-03-27T08:36:42.189Z,5132.00
2024-03-27T08:37:41.407Z,4976.00
2024-03-27T08:38:41.923Z,4756.00
2024-03-27T08:39:41.409Z,4660.00
2024-03-27T08:40:41.368Z,4824.00
2024-03-27T08:41:41.638Z,4948.00
2024-03-27T08:42:41.362Z,4996.00
2024-03-27T08:43:41.333Z,4844.00
2024-03-27T08:44:41.333Z,4872.00
2024-03-27T08:45:41.369Z,4900.00
2024-03-27T08:46:41.297Z,4892.00
2024-03-27T08:47:41.273Z,5072.00
2024-03-27T08:48:41.267Z,5240.00
2024-03-27T08:49:41.256Z,5092.00
2024-03-27T08:50:41.261Z,4856.00
2024-03-27T08:51:41.273Z,4872.00
2024-03-27T08:52:41.229Z,5116.00
2024-03-27T08:53:41.222Z,5368.00
2024-03-27T08:54:41.201Z,5456.00
2024-03-27T08:55:41.190Z,5424.00
2024-03-27T08:56:41.196Z,5248.00
2024-03-27T08:57:41.201Z,5012.00
2024-03-27T08:58:41.185Z,4776.00
2024-03-27T08:59:41.161Z,4664.00
2024-03-27T09:00:41.157Z,4668.00
2024-03-27T09:01:41.124Z,4860.00
2024-03-27T09:02:41.187Z,5136.00
2024-03-27T09:03:41.114Z,5424.00
2024-03-27T09:04:41.107Z,5600.00
2024-03-27T09:05:41.095Z,5644.00
2024-03-27T09:06:41.068Z,5624.00
2024-03-27T09:07:41.052Z,5268.00
2024-03-27T09:08:41.069Z,5028.00
2024-03-27T09:09:41.048Z,5244.00
2024-03-27T09:10:41.015Z,5644.00
2024-03-27T09:11:41.016Z,5564.00
2024-03-27T09:12:41.067Z,5200.00
2024-03-27T09:13:41.004Z,4964.00
2024-03-27T09:14:40.982Z,4828.00
2024-03-27T09:15:41.092Z,4716.00
2024-03-27T09:16:40.984Z,4824.00
2024-03-27T09:17:40.957Z,5256.00
2024-03-27T09:18:40.958Z,5752.00
2024-03-27T09:19:40.927Z,5956.00
2024-03-27T09:20:40.967Z,5728.00
2024-03-27T09:21:40.950Z,5392.00
2024-03-27T09:22:40.926Z,5320.00
2024-03-27T09:23:40.904Z,5552.00
2024-03-27T09:24:40.895Z,5860.00
2024-03-27T09:25:40.845Z,5936.00
2024-03-27T09:26:41.111Z,5908.00
2024-03-27T09:27:40.970Z,6136.00
2024-03-27T09:28:40.830Z,6524.00
2024-03-27T09:29:40.809Z,6776.00
2024-03-27T09:30:40.812Z,6692.00
2024-03-27T09:31:40.802Z,6384.00
2024-03-27T09:32:40.829Z,6088.00
2024-03-27T09:33:40.780Z,5768.00
2024-03-27T09:34:40.742Z,5512.00
2024-03-27T09:35:40.766Z,5528.00
2024-03-27T09:36:40.736Z,5800.00
2024-03-27T09:37:40.755Z,5944.00
2024-03-27T09:38:40.731Z,5812.00
2024-03-27T09:39:40.690Z,5492.00
2024-03-27T09:40:40.702Z,5332.00
2024-03-27T09:41:40.664Z,5520.00
2024-03-27T09:42:41.174Z,5908.00
2024-03-27T09:43:40.715Z,6196.00
2024-03-27T09:44:40.662Z,6192.00
2024-03-27T09:45:40.658Z,5984.00
2024-03-27T09:46:40.616Z,5748.00
2024-03-27T09:48:40.586Z,5356.00
2024-03-27T09:49:40.577Z,5172.00
2024-03-27T09:50:40.571Z,5040.00
2024-03-27T09:51:40.573Z,5072.00
2024-03-27T09:52:40.543Z,5200.00
2024-03-27T09:53:40.549Z,5248.00
2024-03-27T09:54:40.516Z,5220.00
2024-03-27T09:55:40.523Z,5192.00
2024-03-27T09:56:40.681Z,5208.00
2024-03-27T09:57:40.468Z,5244.00
2024-03-27T09:58:40.875Z,5240.00
2024-03-27T09:59:40.481Z,5148.00
2024-03-27T10:00:40.483Z,4992.00
2024-03-27T10:01:48.594Z,4860.00
2024-03-27T10:02:42.038Z,4876.00
2024-03-27T10:03:40.496Z,5128.00
2024-03-27T10:04:40.429Z,5548.00
2024-03-27T10:05:40.391Z,5956.00
2024-03-27T10:06:40.371Z,6256.00
2024-03-27T10:07:40.637Z,6404.00
2024-03-27T10:08:40.364Z,6372.00
2024-03-27T10:09:40.343Z,6336.00
2024-03-27T10:10:40.363Z,6436.00
2024-03-27T10:11:40.307Z,6800.00
2024-03-27T10:12:40.464Z,6988.00
2024-03-27T10:13:40.304Z,6860.00
2024-03-27T10:14:40.315Z,6404.00
2024-03-27T10:15:40.274Z,6300.00
2024-03-27T10:16:40.256Z,6836.00
2024-03-27T10:17:40.285Z,7700.00
2024-03-27T10:18:40.241Z,8360.00
2024-03-27T10:19:40.215Z,8144.00
2024-03-27T10:20:40.239Z,7272.00
2024-03-27T10:21:40.207Z,6452.00
2024-03-27T10:22:40.347Z,5808.00
2024-03-27T10:23:40.463Z,5160.00
2024-03-27T10:24:40.211Z,5012.00
2024-03-27T10:25:40.166Z,5604.00
2024-03-27T10:26:40.151Z,6532.00
2024-03-27T10:27:40.127Z,7332.00
2024-03-27T10:28:40.123Z,7708.00
2024-03-27T10:29:40.093Z,8444.00
2024-03-27T10:30:40.103Z,7864.00
2024-03-27T10:31:40.094Z,6748.00
2024-03-27T10:32:40.072Z,5796.00
2024-03-27T10:33:40.043Z,5552.00
2024-03-27T10:34:44.383Z,5860.00
2024-03-27T10:35:41.077Z,5480.00
2024-03-27T10:36:40.029Z,5104.00
2024-03-27T10:37:40.070Z,5088.00
2024-03-27T10:38:40.006Z,5100.00
2024-03-27T10:39:39.993Z,5308.00
2024-03-27T10:40:39.982Z,5408.00
2024-03-27T10:41:39.991Z,5464.00
2024-03-27T10:42:39.952Z,5428.00
2024-03-27T10:43:40.284Z,5388.00
2024-03-27T10:44:39.930Z,5292.00
2024-03-27T10:45:39.918Z,5304.00
2024-03-27T10:46:39.912Z,5688.00
2024-03-27T10:47:39.905Z,6176.00
2024-03-27T10:48:39.890Z,6896.00
2024-03-27T10:49:39.893Z,7456.00
2024-03-27T10:50:40.008Z,7400.00
2024-03-27T10:51:39.854Z,7080.00
2024-03-27T10:52:39.851Z,6920.00
2024-03-27T10:53:39.832Z,7032.00
2024-03-27T10:54:40.835Z,7164.00
2024-03-27T10:55:39.820Z,7040.00
2024-03-27T10:56:39.810Z,7024.00
2024-03-27T10:57:39.793Z,7448.00
2024-03-27T10:58:39.985Z,8060.00
2024-03-27T10:59:39.796Z,8600.00
2024-03-27T11:00:39.749Z,8564.00
2024-03-27T11:01:39.761Z,8292.00
2024-03-27T11:02:39.731Z,7856.00
2024-03-27T11:03:39.704Z,7408.00
2024-03-27T11:04:39.726Z,6860.00
2024-03-27T11:05:39.742Z,6320.00
2024-03-27T11:06:39.679Z,5800.00
2024-03-27T11:07:39.686Z,5444.00
2024-03-27T11:08:39.663Z,5436.00
2024-03-27T11:09:39.663Z,5688.00
2024-03-27T11:10:39.648Z,6052.00
2024-03-27T11:11:39.632Z,6404.00
2024-03-27T11:12:39.625Z,6620.00
2024-03-27T11:13:39.594Z,6684.00
2024-03-27T11:14:39.591Z,6680.00
2024-03-27T11:15:39.578Z,6652.00
2024-03-27T11:16:39.576Z,6700.00
2024-03-27T11:17:39.594Z,6976.00
2024-03-27T11:18:39.537Z,7484.00
2024-03-27T11:19:39.536Z,7836.00
2024-03-27T11:20:39.523Z,7684.00
2024-03-27T11:21:39.507Z,7220.00
2024-03-27T11:22:39.517Z,6720.00
2024-03-27T11:23:39.502Z,6372.00
2024-03-27T11:24:40.685Z,6208.00
2024-03-27T11:25:39.630Z,6384.00
2024-03-27T11:26:39.543Z,6824.00
2024-03-27T11:27:39.458Z,7012.00
2024-03-27T11:28:39.439Z,6656.00
2024-03-27T11:29:39.434Z,6044.00
2024-03-27T11:30:39.421Z,5600.00
2024-03-27T11:31:39.403Z,5536.00
2024-03-27T11:32:39.420Z,5732.00
2024-03-27T11:33:39.381Z,5864.00
2024-03-27T11:34:39.373Z,5952.00
2024-03-27T11:35:39.372Z,6140.00
2024-03-27T11:36:39.346Z,6296.00
2024-03-27T11:37:39.326Z,6148.00
2024-03-27T11:38:39.330Z,5632.00
2024-03-27T11:39:39.333Z,5100.00
2024-03-27T11:40:39.306Z,4964.00
2024-03-27T11:41:40.344Z,5252.00
2024-03-27T11:42:39.276Z,5248.00
2024-03-27T11:43:39.271Z,5012.00
2024-03-27T11:44:39.989Z,4748.00
2024-03-27T11:45:42.019Z,4664.00
2024-03-27T11:46:39.229Z,4704.00
2024-03-27T11:47:39.230Z,4792.00
2024-03-27T11:48:39.200Z,4820.00
2024-03-27T11:49:39.200Z,4712.00
2024-03-27T11:50:39.210Z,4384.00
2024-03-27T11:51:39.191Z,4040.00
2024-03-27T11:52:39.164Z,4168.00
2024-03-27T11:53:39.171Z,4468.00
2024-03-27T11:54:39.148Z,4976.00
2024-03-27T11:55:39.145Z,5664.00
2024-03-27T11:56:39.128Z,6244.00
2024-03-27T11:57:39.131Z,6776.00
2024-03-27T11:58:39.695Z,7084.00
2024-03-27T11:59:39.090Z,7016.00
2024-03-27T12:00:39.093Z,6916.00
2024-03-27T12:01:39.066Z,6680.00
2024-03-27T12:02:39.089Z,6136.00
2024-03-27T12:03:39.078Z,5456.00
2024-03-27T12:04:39.161Z,4796.00
2024-03-27T12:05:39.122Z,4488.00
2024-03-27T12:06:39.019Z,4528.00
2024-03-27T12:07:38.994Z,3944.00
2024-03-27T12:08:39.020Z,3340.00
2024-03-27T12:09:39.123Z,3224.00
2024-03-27T12:10:39.142Z,3272.00
2024-03-27T12:11:38.951Z,3224.00
2024-03-27T12:12:38.957Z,3308.00
2024-03-27T12:13:38.941Z,3648.00
2024-03-27T12:14:39.287Z,4300.00
2024-03-27T12:15:38.916Z,4632.00
2024-03-27T12:16:38.914Z,4540.00
2024-03-27T12:17:38.879Z,4640.00
2024-03-27T12:18:38.892Z,4708.00
2024-03-27T12:19:39.096Z,4684.00
2024-03-27T12:20:38.843Z,4868.00
2024-03-27T12:21:38.835Z,5564.00
2024-03-27T12:22:38.840Z,6284.00
2024-03-27T12:23:38.869Z,6752.00
2024-03-27T12:24:38.818Z,6508.00
2024-03-27T12:25:38.833Z,6196.00
2024-03-27T12:26:38.830Z,6184.00
2024-03-27T12:27:38.843Z,6216.00
2024-03-27T12:28:38.797Z,5972.00
2024-03-27T12:29:38.748Z,5680.00
2024-03-27T12:30:38.765Z,5548.00
2024-03-27T12:31:38.713Z,5452.00
2024-03-27T12:32:38.738Z,5436.00
2024-03-27T12:33:38.747Z,5408.00
2024-03-27T12:34:38.689Z,5192.00
2024-03-27T12:35:39.298Z,5016.00
2024-03-27T12:36:38.676Z,4736.00
2024-03-27T12:37:38.652Z,4428.00